Newport Municipal Airport
KONP : now visible

Airfield :











YOU CAN JOIN US ON...

 
LOGIN :

Register | Disclaimer

   EN    FR    IT 

 









Legend :    VFR   Marginal VFR   IFR   Intensive IFR   Very Intensive IFR
Visi :
Ceiling :
>= 8 km
>= 3000ft
5 to 8 km
1000 to 3000 ft
1500m to 5 km
500 to 1000 ft
800 to 1500m
200 to 500 ft
< 800m
< 200 ft
Symbols :   Thunderstorms  Fog  Heavy snow  Heavy precipitations  Wind > 20 kt






- Airport Elevation : 160 ft


KONP - Newport Municipal

CURRENT METAR :
  • 130017Z AUTO 35003KT 2 1/2SM BR SCT070 12/10 A3016 RMK AO2

EXPIRED METARs :
  • 122356Z AUTO 00000KT 5SM BR OVC070 13/11 A3016 RMK AO2
  • 122337Z AUTO 00000KT 4SM BR SCT010 OVC070 13/11 A3016 RMK AO2
  • 122317Z AUTO 00000KT 5SM BR OVC010 13/11 A3017 RMK AO2
  • 122256Z AUTO 00000KT 10SM OVC010 13/12 A3017 RMK AO2
  • 122237Z AUTO 00000KT 7SM OVC008 13/12 A3017 RMK AO2
  • 122216Z AUTO 00000KT 4SM BR OVC008 13/11 A3018 RMK AO2
  • 122156Z AUTO 23003KT 7SM OVC008 13/11 A3018 RMK AO2
  • 122136Z AUTO 00000KT 10SM OVC008 13/11 A3018 RMK AO2

TAF KONP
Valid from the 13 at 00:00 until the 14 at 00:00 UTC


122335Z 1300/1324 VRB02KT 5SM BR OVC010
FM130200 VRB02KT P6SM OVC007
FM130600 VRB02KT 6SM BR OVC015
FM130800 VRB05KT 4SM BR OVC007
FM131800 08008KT P6SM OVC007
FM132000 07007KT P6SM BKN250



MET'MAP, your aeronautical weather chart ! - Copyright ORBIFLY December 2007 - Disclaimer

ORBIFLY MET'MAP TEAM :

Programming & Development : Alexandra Zaïnal
Concept & Development : Baudouin d'Aumeries
Co-Development & Prog : Marc-Olivier Méhu
Technical & hardware support : Manuel Goepfert

Contact : metmap@orbifly.com




SOURCES & CREDITS :

   NOAA       Earth
Advisory